PWSweather.com
Personal Weather Stations
Station Observations
UISISLE1
Newport, Isle ofWight, ISLE OF WIGHT PO30 2JX

NewportIsle ofWight, ISLE OF WIGHT PO30 2JX

Lat: 50.72, Lon: -1.27

Elevation: 45

Station Type: Davis Vantage Pro Plus

http://www.isleofwightweather.co.uk

High Low Average
Temperature 76.2°F24.6°C 53.7°F12.1°C 64.0°F17.8°C
Dew Point 59.7°F15.4°C 51.4°F10.8°C 55.4°F13.0°C
Winds 6.4 mph 10.3 kmh Calm Calm 2.0 mph WSW3.2 kmh WSW
Wind Gusts 13.0 mph20.9 kmh -- 4.0 mph6.4 kmh
Humidity 95% 49% 75%
Pressure 30.19 in1022.4 mb 30.13 in1020.3 mb -
Precipitation 0.00 in0.0 mm - -
Hour Temp Dew Point Humidity Winds Wind Gusts Pressure Precip Precip Rate Daily Precip Total
12:00 AM 57.5°F14.2°C 54.3°F12.4°C 89% 0.7 mph SW1.1 kmh SW 1.0 mph1.6 kmh 30.13 in1020.3 mb - 0.00 in0.0 mm 0.00 in0.0 mm
12:15 AM 57.1°F13.9°C 53.9°F12.2°C 89% Calm Calm -- 30.13 in1020.3 mb - 0.00 in0.0 mm 0.00 in0.0 mm
12:30 AM 56.6°F13.7°C 53.4°F11.9°C 89% Calm Calm -- 30.13 in1020.3 mb - 0.00 in0.0 mm 0.00 in0.0 mm
12:45 AM 56.3°F13.5°C 53.4°F11.9°C 90% 0.1 mph SW0.2 kmh SW 1.0 mph1.6 kmh 30.13 in1020.3 mb - 0.00 in0.0 mm 0.00 in0.0 mm
01:00 AM 56.2°F13.4°C 53.3°F11.8°C 90% 1.9 mph SW3.1 kmh SW 4.0 mph6.4 kmh 30.13 in1020.3 mb - 0.00 in0.0 mm 0.00 in0.0 mm
01:15 AM 56.4°F13.6°C 53.8°F12.1°C 91% 2.4 mph SW3.9 kmh SW 4.0 mph6.4 kmh 30.13 in1020.3 mb - 0.00 in0.0 mm 0.00 in0.0 mm
01:30 AM 56.6°F13.7°C 54.0°F12.2°C 91% 0.1 mph SW0.2 kmh SW 1.0 mph1.6 kmh 30.13 in1020.3 mb - 0.00 in0.0 mm 0.00 in0.0 mm
01:45 AM 56.6°F13.7°C 54.0°F12.2°C 91% Calm Calm -- 30.14 in1020.7 mb - 0.00 in0.0 mm 0.00 in0.0 mm
02:00 AM 56.5°F13.6°C 53.9°F12.2°C 91% Calm Calm -- 30.13 in1020.3 mb - 0.00 in0.0 mm 0.00 in0.0 mm
02:15 AM 56.3°F13.5°C 54.0°F12.2°C 92% Calm Calm -- 30.13 in1020.3 mb - 0.00 in0.0 mm 0.00 in0.0 mm
02:30 AM 56.0°F13.3°C 53.7°F12.1°C 92% Calm Calm -- 30.13 in1020.3 mb - 0.00 in0.0 mm 0.00 in0.0 mm
02:45 AM 55.8°F13.2°C 53.2°F11.8°C 91% Calm Calm -- 30.13 in1020.3 mb - 0.00 in0.0 mm 0.00 in0.0 mm
03:00 AM 55.5°F13.1°C 53.2°F11.8°C 92% Calm Calm -- 30.14 in1020.7 mb - 0.00 in0.0 mm 0.00 in0.0 mm
03:15 AM 55.3°F12.9°C 52.7°F11.5°C 91% Calm Calm -- 30.14 in1020.7 mb - 0.00 in0.0 mm 0.00 in0.0 mm
03:30 AM 55.0°F12.8°C 52.7°F11.5°C 92% Calm Calm -- 30.14 in1020.7 mb - 0.00 in0.0 mm 0.00 in0.0 mm
03:45 AM 54.8°F12.7°C 52.5°F11.4°C 92% Calm Calm -- 30.14 in1020.7 mb - 0.00 in0.0 mm 0.00 in0.0 mm
04:00 AM 54.5°F12.5°C 52.2°F11.2°C 92% Calm Calm -- 30.14 in1020.7 mb - 0.00 in0.0 mm 0.00 in0.0 mm
04:15 AM 54.1°F12.3°C 51.9°F11.1°C 92% Calm Calm -- 30.14 in1020.7 mb - 0.00 in0.0 mm 0.00 in0.0 mm
04:30 AM 53.9°F12.2°C 51.6°F10.9°C 92% Calm Calm -- 30.14 in1020.7 mb - 0.00 in0.0 mm 0.00 in0.0 mm
04:45 AM 53.8°F12.1°C 51.5°F10.8°C 92% Calm Calm -- 30.14 in1020.7 mb - 0.00 in0.0 mm 0.00 in0.0 mm
05:00 AM 53.8°F12.1°C 51.5°F10.8°C 92% Calm Calm -- 30.14 in1020.7 mb - 0.00 in0.0 mm 0.00 in0.0 mm
05:15 AM 53.8°F12.1°C 51.5°F10.8°C 92% Calm Calm -- 30.14 in1020.7 mb - 0.00 in0.0 mm 0.00 in0.0 mm
05:30 AM 53.7°F12.1°C 51.4°F10.8°C 92% Calm Calm -- 30.15 in1021.0 mb - 0.00 in0.0 mm 0.00 in0.0 mm
05:45 AM 53.9°F12.2°C 51.9°F11.1°C 93% Calm Calm -- 30.15 in1021.0 mb - 0.00 in0.0 mm 0.00 in0.0 mm
06:00 AM 54.4°F12.4°C 52.4°F11.3°C 93% 1.9 mph SSW3.1 kmh SSW 3.0 mph4.8 kmh 30.15 in1021.0 mb - 0.00 in0.0 mm 0.00 in0.0 mm
06:15 AM 55.4°F13.0°C 53.7°F12.1°C 94% 0.1 mph SW0.2 kmh SW 2.0 mph3.2 kmh 30.16 in1021.3 mb - 0.00 in0.0 mm 0.00 in0.0 mm
06:30 AM 56.4°F13.6°C 54.7°F12.6°C 94% Calm Calm -- 30.16 in1021.3 mb - 0.00 in0.0 mm 0.00 in0.0 mm
06:45 AM 58.1°F14.5°C 56.6°F13.7°C 95% 0.9 mph NW1.4 kmh NW 2.1 mph3.4 kmh 30.17 in1021.7 mb - 0.00 in0.0 mm 0.00 in0.0 mm
07:00 AM 59.3°F15.2°C 57.9°F14.4°C 95% 2.7 mph W4.3 kmh W 4.1 mph6.6 kmh 30.17 in1021.7 mb - 0.00 in0.0 mm 0.00 in0.0 mm
07:15 AM 59.8°F15.4°C 58.4°F14.7°C 95% 1.2 mph NW1.9 kmh NW 2.1 mph3.4 kmh 30.18 in1022.0 mb - 0.00 in0.0 mm 0.00 in0.0 mm
07:30 AM 60.4°F15.8°C 58.9°F14.9°C 95% 0.3 mph W0.5 kmh W 2.0 mph3.2 kmh 30.18 in1022.0 mb - 0.00 in0.0 mm 0.00 in0.0 mm
07:45 AM 61.2°F16.2°C 59.2°F15.1°C 93% 1.0 mph WSW1.6 kmh WSW 4.1 mph6.6 kmh 30.18 in1022.0 mb - 0.00 in0.0 mm 0.00 in0.0 mm
08:00 AM 62.3°F16.8°C 59.7°F15.4°C 91% 3.0 mph NW4.8 kmh NW 4.1 mph6.6 kmh 30.18 in1022.0 mb - 0.00 in0.0 mm 0.00 in0.0 mm
08:15 AM 64.0°F17.8°C 59.1°F15.1°C 84% 2.1 mph NNW3.4 kmh NNW 6.2 mph10.0 kmh 30.18 in1022.0 mb - 0.00 in0.0 mm 0.00 in0.0 mm
08:30 AM 65.0°F18.3°C 58.0°F14.4°C 78% 0.5 mph NW0.8 kmh NW 3.0 mph4.8 kmh 30.18 in1022.0 mb - 0.00 in0.0 mm 0.00 in0.0 mm
08:45 AM 64.9°F18.3°C 57.5°F14.2°C 77% Calm Calm -- 30.18 in1022.0 mb - 0.00 in0.0 mm 0.00 in0.0 mm
09:00 AM 66.5°F19.2°C 59.0°F15.0°C 77% 2.7 mph NW4.3 kmh NW 4.1 mph6.6 kmh 30.18 in1022.0 mb - 0.00 in0.0 mm 0.00 in0.0 mm
09:15 AM 67.0°F19.4°C 58.1°F14.5°C 73% Calm Calm -- 30.18 in1022.0 mb - 0.00 in0.0 mm 0.00 in0.0 mm
09:30 AM 69.1°F20.6°C 59.3°F15.2°C 71% 3.6 mph NW5.8 kmh NW 6.2 mph10.0 kmh 30.18 in1022.0 mb - 0.00 in0.0 mm 0.00 in0.0 mm
09:45 AM 69.7°F20.9°C 58.7°F14.8°C 68% 3.7 mph NW6.0 kmh NW 7.0 mph11.3 kmh 30.18 in1022.0 mb - 0.00 in0.0 mm 0.00 in0.0 mm
10:00 AM 69.0°F20.6°C 58.4°F14.7°C 69% 1.8 mph NW2.9 kmh NW 4.1 mph6.6 kmh 30.19 in1022.4 mb - 0.00 in0.0 mm 0.00 in0.0 mm
10:15 AM 68.9°F20.5°C 58.3°F14.6°C 69% 3.3 mph SW5.3 kmh SW 7.2 mph11.6 kmh 30.19 in1022.4 mb - 0.00 in0.0 mm 0.00 in0.0 mm
10:30 AM 69.1°F20.6°C 57.7°F14.3°C 67% 0.7 mph WSW1.1 kmh WSW 3.0 mph4.8 kmh 30.19 in1022.4 mb - 0.00 in0.0 mm 0.00 in0.0 mm
10:45 AM 71.3°F21.8°C 59.0°F15.0°C 65% 4.0 mph SW6.4 kmh SW 7.0 mph11.3 kmh 30.19 in1022.4 mb - 0.00 in0.0 mm 0.00 in0.0 mm
11:00 AM 72.8°F22.7°C 58.1°F14.5°C 60% 5.7 mph SW9.2 kmh SW 10.0 mph16.1 kmh 30.18 in1022.0 mb - 0.00 in0.0 mm 0.00 in0.0 mm
11:15 AM 73.5°F23.1°C 57.9°F14.4°C 58% 3.2 mph W5.1 kmh W 5.1 mph8.2 kmh 30.18 in1022.0 mb - 0.00 in0.0 mm 0.00 in0.0 mm
11:30 AM 74.5°F23.6°C 57.8°F14.3°C 56% 1.6 mph WSW2.6 kmh WSW 2.1 mph3.4 kmh 30.18 in1022.0 mb - 0.00 in0.0 mm 0.00 in0.0 mm
11:45 AM 74.9°F23.8°C 57.1°F13.9°C 54% 3.5 mph NW5.6 kmh NW 9.0 mph14.5 kmh 30.18 in1022.0 mb - 0.00 in0.0 mm 0.00 in0.0 mm
12:00 PM 75.1°F23.9°C 56.8°F13.8°C 53% 4.8 mph WSW7.7 kmh WSW 9.0 mph14.5 kmh 30.18 in1022.0 mb - 0.00 in0.0 mm 0.00 in0.0 mm
12:15 PM 75.2°F24.0°C 56.9°F13.8°C 53% 5.2 mph S8.4 kmh S 9.0 mph14.5 kmh 30.18 in1022.0 mb - 0.00 in0.0 mm 0.00 in0.0 mm
12:30 PM 75.5°F24.2°C 56.1°F13.4°C 51% 5.0 mph SW8.0 kmh SW 10.0 mph16.1 kmh 30.17 in1021.7 mb - 0.00 in0.0 mm 0.00 in0.0 mm
12:45 PM 75.5°F24.2°C 55.0°F12.8°C 49% 4.4 mph SW7.1 kmh SW 10.0 mph16.1 kmh 30.17 in1021.7 mb - 0.00 in0.0 mm 0.00 in0.0 mm
01:00 PM 75.6°F24.2°C 55.6°F13.1°C 50% 4.0 mph SW6.4 kmh SW 6.0 mph9.7 kmh 30.17 in1021.7 mb - 0.00 in0.0 mm 0.00 in0.0 mm
01:15 PM 75.6°F24.2°C 56.7°F13.7°C 52% 2.2 mph WSW3.5 kmh WSW 5.1 mph8.2 kmh 30.17 in1021.7 mb - 0.00 in0.0 mm 0.00 in0.0 mm
01:30 PM 76.2°F24.6°C 55.6°F13.1°C 49% 4.6 mph WSW7.4 kmh WSW 10.0 mph16.1 kmh 30.17 in1021.7 mb - 0.00 in0.0 mm 0.00 in0.0 mm
01:45 PM 75.7°F24.3°C 55.7°F13.2°C 50% 3.8 mph WSW6.1 kmh WSW 9.0 mph14.5 kmh 30.17 in1021.7 mb - 0.00 in0.0 mm 0.00 in0.0 mm
02:00 PM 75.7°F24.3°C 56.8°F13.8°C 52% 4.8 mph SSW7.7 kmh SSW 9.0 mph14.5 kmh 30.17 in1021.7 mb - 0.00 in0.0 mm 0.00 in0.0 mm
02:15 PM 75.9°F24.4°C 56.5°F13.6°C 51% 5.5 mph SW8.9 kmh SW 12.0 mph19.3 kmh 30.17 in1021.7 mb - 0.00 in0.0 mm 0.00 in0.0 mm
02:30 PM 75.9°F24.4°C 57.0°F13.9°C 52% 3.2 mph W5.1 kmh W 8.0 mph12.9 kmh 30.17 in1021.7 mb - 0.00 in0.0 mm 0.00 in0.0 mm
02:45 PM 75.8°F24.3°C 56.4°F13.6°C 51% 5.3 mph SW8.5 kmh SW 10.0 mph16.1 kmh 30.17 in1021.7 mb - 0.00 in0.0 mm 0.00 in0.0 mm
03:00 PM 75.3°F24.1°C 56.0°F13.3°C 51% 5.4 mph SW8.7 kmh SW 9.0 mph14.5 kmh 30.16 in1021.3 mb - 0.00 in0.0 mm 0.00 in0.0 mm
03:15 PM 74.9°F23.8°C 56.1°F13.4°C 52% 6.0 mph WSW9.7 kmh WSW 10.0 mph16.1 kmh 30.17 in1021.7 mb - 0.00 in0.0 mm 0.00 in0.0 mm
03:30 PM 74.2°F23.4°C 56.0°F13.3°C 53% 4.7 mph WSW7.6 kmh WSW 11.0 mph17.7 kmh 30.17 in1021.7 mb - 0.00 in0.0 mm 0.00 in0.0 mm
03:45 PM 72.9°F22.7°C 54.8°F12.7°C 53% 5.0 mph SW8.0 kmh SW 13.0 mph20.9 kmh 30.17 in1021.7 mb - 0.00 in0.0 mm 0.00 in0.0 mm
04:00 PM 71.5°F21.9°C 55.5°F13.1°C 57% 3.8 mph WNW6.1 kmh WNW 10.0 mph16.1 kmh 30.18 in1022.0 mb - 0.00 in0.0 mm 0.00 in0.0 mm
04:15 PM 70.1°F21.2°C 55.6°F13.1°C 60% 4.0 mph W6.4 kmh W 7.0 mph11.3 kmh 30.18 in1022.0 mb - 0.00 in0.0 mm 0.00 in0.0 mm
04:30 PM 69.5°F20.8°C 55.0°F12.8°C 60% 6.4 mph WSW10.3 kmh WSW 9.0 mph14.5 kmh 30.17 in1021.7 mb - 0.00 in0.0 mm 0.00 in0.0 mm
04:45 PM 69.1°F20.6°C 55.1°F12.8°C 61% 4.8 mph SW7.7 kmh SW 11.0 mph17.7 kmh 30.17 in1021.7 mb - 0.00 in0.0 mm 0.00 in0.0 mm
05:00 PM 68.5°F20.3°C 55.0°F12.8°C 62% 4.0 mph SW6.4 kmh SW 7.0 mph11.3 kmh 30.17 in1021.7 mb - 0.00 in0.0 mm 0.00 in0.0 mm
05:15 PM 68.2°F20.1°C 54.7°F12.6°C 62% 6.2 mph SW10.0 kmh SW 10.0 mph16.1 kmh 30.16 in1021.3 mb - 0.00 in0.0 mm 0.00 in0.0 mm
05:30 PM 68.1°F20.1°C 55.5°F13.1°C 64% 5.4 mph SW8.7 kmh SW 10.0 mph16.1 kmh 30.17 in1021.7 mb - 0.00 in0.0 mm 0.00 in0.0 mm
05:45 PM 68.1°F20.1°C 56.7°F13.7°C 67% 5.8 mph SW9.3 kmh SW 9.0 mph14.5 kmh 30.17 in1021.7 mb - 0.00 in0.0 mm 0.00 in0.0 mm
06:00 PM 67.7°F19.8°C 56.3°F13.5°C 67% 2.9 mph SW4.7 kmh SW 6.0 mph9.7 kmh 30.17 in1021.7 mb - 0.00 in0.0 mm 0.00 in0.0 mm
06:15 PM 67.0°F19.4°C 56.1°F13.4°C 68% 4.2 mph SW6.8 kmh SW 8.0 mph12.9 kmh 30.17 in1021.7 mb - 0.00 in0.0 mm 0.00 in0.0 mm
06:30 PM 66.9°F19.4°C 56.8°F13.8°C 70% 6.0 mph SSW9.7 kmh SSW 9.0 mph14.5 kmh 30.17 in1021.7 mb - 0.00 in0.0 mm 0.00 in0.0 mm
06:45 PM 66.9°F19.4°C 56.8°F13.8°C 70% 3.1 mph SW5.0 kmh SW 6.0 mph9.7 kmh 30.17 in1021.7 mb - 0.00 in0.0 mm 0.00 in0.0 mm
07:00 PM 67.0°F19.4°C 56.5°F13.6°C 69% 3.9 mph S6.3 kmh S 8.0 mph12.9 kmh 30.17 in1021.7 mb - 0.00 in0.0 mm 0.00 in0.0 mm
07:15 PM 66.7°F19.3°C 56.6°F13.7°C 70% 1.9 mph SW3.1 kmh SW 4.0 mph6.4 kmh 30.17 in1021.7 mb - 0.00 in0.0 mm 0.00 in0.0 mm
07:30 PM 66.3°F19.1°C 56.6°F13.7°C 71% 3.1 mph SW5.0 kmh SW 4.0 mph6.4 kmh 30.17 in1021.7 mb - 0.00 in0.0 mm 0.00 in0.0 mm
07:45 PM 65.7°F18.7°C 56.4°F13.6°C 72% 2.2 mph W3.5 kmh W 4.1 mph6.6 kmh 30.18 in1022.0 mb - 0.00 in0.0 mm 0.00 in0.0 mm
08:00 PM 64.9°F18.3°C 56.0°F13.3°C 73% 1.5 mph SW2.4 kmh SW 4.0 mph6.4 kmh 30.18 in1022.0 mb - 0.00 in0.0 mm 0.00 in0.0 mm
08:15 PM 64.1°F17.8°C 56.0°F13.3°C 75% Calm Calm -- 30.18 in1022.0 mb - 0.00 in0.0 mm 0.00 in0.0 mm
08:30 PM 63.3°F17.4°C 55.2°F12.9°C 75% Calm Calm -- 30.18 in1022.0 mb - 0.00 in0.0 mm 0.00 in0.0 mm
08:45 PM 62.3°F16.8°C 54.6°F12.6°C 76% Calm Calm -- 30.19 in1022.4 mb - 0.00 in0.0 mm 0.00 in0.0 mm
09:00 PM 61.3°F16.3°C 54.1°F12.3°C 77% Calm Calm -- 30.19 in1022.4 mb - 0.00 in0.0 mm 0.00 in0.0 mm
09:15 PM 60.5°F15.8°C 54.3°F12.4°C 80% Calm Calm -- 30.19 in1022.4 mb - 0.00 in0.0 mm 0.00 in0.0 mm
09:30 PM 60.0°F15.6°C 54.2°F12.3°C 81% Calm Calm -- 30.19 in1022.4 mb - 0.00 in0.0 mm 0.00 in0.0 mm
09:45 PM 59.5°F15.3°C 54.0°F12.2°C 82% Calm Calm -- 30.19 in1022.4 mb - 0.00 in0.0 mm 0.00 in0.0 mm
10:00 PM 59.1°F15.1°C 53.9°F12.2°C 83% Calm Calm -- 30.18 in1022.0 mb - 0.00 in0.0 mm 0.00 in0.0 mm
10:15 PM 58.7°F14.8°C 53.9°F12.2°C 84% Calm Calm -- 30.18 in1022.0 mb - 0.00 in0.0 mm 0.00 in0.0 mm
10:30 PM 58.3°F14.6°C 53.8°F12.1°C 85% Calm Calm -- 30.18 in1022.0 mb - 0.00 in0.0 mm 0.00 in0.0 mm
10:45 PM 57.9°F14.4°C 53.7°F12.1°C 86% Calm Calm -- 30.18 in1022.0 mb - 0.00 in0.0 mm 0.00 in0.0 mm
11:00 PM 57.6°F14.2°C 53.5°F11.9°C 86% Calm Calm -- 30.19 in1022.4 mb - 0.00 in0.0 mm 0.00 in0.0 mm
11:15 PM 57.3°F14.1°C 53.5°F11.9°C 87% Calm Calm -- 30.19 in1022.4 mb - 0.00 in0.0 mm 0.00 in0.0 mm
11:30 PM 56.9°F13.8°C 53.1°F11.7°C 87% Calm Calm -- 30.19 in1022.4 mb - 0.00 in0.0 mm 0.00 in0.0 mm
11:45 PM 56.5°F13.6°C 52.7°F11.5°C 87% 0.2 mph SW0.3 kmh SW -- 30.19 in1022.4 mb - 0.00 in0.0 mm 0.00 in0.0 mm